sensor_id;sensor_type;location;lat;lon;timestamp;P1;durP1;ratioP1;P2;durP2;ratioP2
22270;SDS011;11304;53.520;10.104;2022-08-20T00:00:38;17.35;;;15.57;;
22270;SDS011;11304;53.520;10.104;2022-08-20T00:03:07;19.98;;;17.77;;
22270;SDS011;11304;53.520;10.104;2022-08-20T00:05:37;21.35;;;19.25;;
22270;SDS011;11304;53.520;10.104;2022-08-20T00:08:03;20.60;;;18.60;;
22270;SDS011;11304;53.520;10.104;2022-08-20T00:10:31;20.92;;;18.48;;
22270;SDS011;11304;53.520;10.104;2022-08-20T00:12:58;21.77;;;19.58;;
22270;SDS011;11304;53.520;10.104;2022-08-20T00:15:27;18.20;;;16.33;;
22270;SDS011;11304;53.520;10.104;2022-08-20T00:20:20;19.23;;;17.38;;
22270;SDS011;11304;53.520;10.104;2022-08-20T00:22:46;18.35;;;16.45;;
22270;SDS011;11304;53.520;10.104;2022-08-20T00:25:13;18.88;;;16.92;;
22270;SDS011;11304;53.520;10.104;2022-08-20T00:27:39;20.05;;;17.95;;
22270;SDS011;11304;53.520;10.104;2022-08-20T00:30:06;18.98;;;17.10;;
22270;SDS011;11304;53.520;10.104;2022-08-20T00:32:48;20.92;;;19.02;;
22270;SDS011;11304;53.520;10.104;2022-08-20T00:35:16;22.00;;;19.67;;
22270;SDS011;11304;53.520;10.104;2022-08-20T00:37:43;24.15;;;21.65;;
22270;SDS011;11304;53.520;10.104;2022-08-20T00:40:10;22.95;;;20.55;;
22270;SDS011;11304;53.520;10.104;2022-08-20T00:42:45;19.50;;;17.50;;
22270;SDS011;11304;53.520;10.104;2022-08-20T00:45:12;19.50;;;17.60;;
22270;SDS011;11304;53.520;10.104;2022-08-20T00:47:39;18.15;;;16.33;;
22270;SDS011;11304;53.520;10.104;2022-08-20T00:50:20;17.73;;;15.93;;
22270;SDS011;11304;53.520;10.104;2022-08-20T00:52:47;15.18;;;12.95;;
22270;SDS011;11304;53.520;10.104;2022-08-20T00:55:14;14.18;;;12.85;;
22270;SDS011;11304;53.520;10.104;2022-08-20T00:57:41;15.18;;;13.35;;
22270;SDS011;11304;53.520;10.104;2022-08-20T01:00:10;15.10;;;13.50;;
22270;SDS011;11304;53.520;10.104;2022-08-20T01:02:37;15.23;;;13.65;;
22270;SDS011;11304;53.520;10.104;2022-08-20T01:05:04;12.88;;;11.57;;
22270;SDS011;11304;53.520;10.104;2022-08-20T01:07:33;11.90;;;10.80;;
22270;SDS011;11304;53.520;10.104;2022-08-20T01:10:10;12.70;;;10.02;;
22270;SDS011;11304;53.520;10.104;2022-08-20T01:12:38;11.15;;;8.77;;
22270;SDS011;11304;53.520;10.104;2022-08-20T01:15:05;9.10;;;8.20;;
22270;SDS011;11304;53.520;10.104;2022-08-20T01:17:34;10.05;;;7.70;;
22270;SDS011;11304;53.520;10.104;2022-08-20T01:20:10;7.55;;;6.63;;
22270;SDS011;11304;53.520;10.104;2022-08-20T01:22:42;7.65;;;6.47;;
22270;SDS011;11304;53.520;10.104;2022-08-20T01:25:40;6.75;;;5.90;;
22270;SDS011;11304;53.520;10.104;2022-08-20T01:28:06;5.97;;;5.43;;
22270;SDS011;11304;53.520;10.104;2022-08-20T01:30:32;5.40;;;4.90;;
22270;SDS011;11304;53.520;10.104;2022-08-20T01:32:59;6.78;;;6.18;;
22270;SDS011;11304;53.520;10.104;2022-08-20T01:35:26;6.75;;;6.05;;
22270;SDS011;11304;53.520;10.104;2022-08-20T01:37:53;6.80;;;5.88;;
22270;SDS011;11304;53.520;10.104;2022-08-20T01:40:26;8.27;;;5.40;;
22270;SDS011;11304;53.520;10.104;2022-08-20T01:42:54;5.40;;;4.90;;
22270;SDS011;11304;53.520;10.104;2022-08-20T01:45:20;5.30;;;4.47;;
22270;SDS011;11304;53.520;10.104;2022-08-20T01:47:46;6.18;;;4.82;;
22270;SDS011;11304;53.520;10.104;2022-08-20T01:50:17;6.47;;;5.80;;
22270;SDS011;11304;53.520;10.104;2022-08-20T01:55:22;6.55;;;5.30;;
22270;SDS011;11304;53.520;10.104;2022-08-20T01:57:51;8.43;;;5.93;;
22270;SDS011;11304;53.520;10.104;2022-08-20T02:00:18;7.32;;;4.93;;
22270;SDS011;11304;53.520;10.104;2022-08-20T02:02:44;7.03;;;5.22;;
22270;SDS011;11304;53.520;10.104;2022-08-20T02:05:11;6.20;;;5.00;;
22270;SDS011;11304;53.520;10.104;2022-08-20T02:07:37;6.30;;;5.10;;
22270;SDS011;11304;53.520;10.104;2022-08-20T02:10:04;8.27;;;5.40;;
22270;SDS011;11304;53.520;10.104;2022-08-20T02:12:30;4.60;;;4.18;;
22270;SDS011;11304;53.520;10.104;2022-08-20T02:14:56;6.40;;;4.80;;
22270;SDS011;11304;53.520;10.104;2022-08-20T02:17:23;5.28;;;4.75;;
22270;SDS011;11304;53.520;10.104;2022-08-20T02:25:07;5.40;;;4.50;;
22270;SDS011;11304;53.520;10.104;2022-08-20T02:27:34;8.45;;;5.90;;
22270;SDS011;11304;53.520;10.104;2022-08-20T02:30:01;6.38;;;4.75;;
22270;SDS011;11304;53.520;10.104;2022-08-20T02:32:27;6.18;;;4.60;;
22270;SDS011;11304;53.520;10.104;2022-08-20T02:34:53;7.63;;;4.70;;
22270;SDS011;11304;53.520;10.104;2022-08-20T02:37:19;6.97;;;4.60;;
22270;SDS011;11304;53.520;10.104;2022-08-20T02:39:45;7.47;;;5.25;;
22270;SDS011;11304;53.520;10.104;2022-08-20T02:42:11;6.10;;;4.85;;
22270;SDS011;11304;53.520;10.104;2022-08-20T02:44:38;8.30;;;4.78;;
22270;SDS011;11304;53.520;10.104;2022-08-20T02:47:05;7.50;;;5.03;;
22270;SDS011;11304;53.520;10.104;2022-08-20T02:49:31;8.43;;;5.15;;
22270;SDS011;11304;53.520;10.104;2022-08-20T02:51:58;9.57;;;5.63;;
22270;SDS011;11304;53.520;10.104;2022-08-20T02:54:25;5.95;;;5.03;;
22270;SDS011;11304;53.520;10.104;2022-08-20T02:56:51;6.03;;;5.35;;
22270;SDS011;11304;53.520;10.104;2022-08-20T02:59:17;6.15;;;5.35;;
22270;SDS011;11304;53.520;10.104;2022-08-20T03:01:43;6.10;;;5.32;;
22270;SDS011;11304;53.520;10.104;2022-08-20T03:04:09;8.45;;;4.97;;
22270;SDS011;11304;53.520;10.104;2022-08-20T03:06:35;7.15;;;5.15;;
22270;SDS011;11304;53.520;10.104;2022-08-20T03:09:02;5.65;;;4.45;;
22270;SDS011;11304;53.520;10.104;2022-08-20T03:11:30;5.35;;;4.38;;
22270;SDS011;11304;53.520;10.104;2022-08-20T03:13:57;4.93;;;4.30;;
22270;SDS011;11304;53.520;10.104;2022-08-20T03:16:23;5.00;;;4.10;;
22270;SDS011;11304;53.520;10.104;2022-08-20T03:18:49;5.78;;;4.57;;
22270;SDS011;11304;53.520;10.104;2022-08-20T03:21:15;6.13;;;4.32;;
22270;SDS011;11304;53.520;10.104;2022-08-20T03:23:41;5.55;;;4.22;;
22270;SDS011;11304;53.520;10.104;2022-08-20T03:26:08;7.35;;;4.78;;
22270;SDS011;11304;53.520;10.104;2022-08-20T03:28:35;5.30;;;4.32;;
22270;SDS011;11304;53.520;10.104;2022-08-20T03:31:03;5.72;;;4.10;;
22270;SDS011;11304;53.520;10.104;2022-08-20T03:33:30;5.88;;;4.47;;
22270;SDS011;11304;53.520;10.104;2022-08-20T03:35:56;5.55;;;4.40;;
22270;SDS011;11304;53.520;10.104;2022-08-20T03:38:22;7.63;;;4.30;;
22270;SDS011;11304;53.520;10.104;2022-08-20T03:40:49;5.93;;;4.50;;
22270;SDS011;11304;53.520;10.104;2022-08-20T03:43:15;5.47;;;4.10;;
22270;SDS011;11304;53.520;10.104;2022-08-20T03:45:42;4.95;;;4.45;;
22270;SDS011;11304;53.520;10.104;2022-08-20T03:48:10;6.18;;;4.35;;
22270;SDS011;11304;53.520;10.104;2022-08-20T03:50:37;9.05;;;5.47;;
22270;SDS011;11304;53.520;10.104;2022-08-20T03:53:05;8.23;;;5.38;;
22270;SDS011;11304;53.520;10.104;2022-08-20T03:55:31;7.32;;;5.40;;
22270;SDS011;11304;53.520;10.104;2022-08-20T03:57:59;6.88;;;5.00;;
22270;SDS011;11304;53.520;10.104;2022-08-20T04:00:37;8.75;;;6.95;;
22270;SDS011;11304;53.520;10.104;2022-08-20T04:03:04;10.95;;;7.93;;
22270;SDS011;11304;53.520;10.104;2022-08-20T04:05:32;6.50;;;5.35;;
22270;SDS011;11304;53.520;10.104;2022-08-20T04:07:59;6.45;;;5.13;;
22270;SDS011;11304;53.520;10.104;2022-08-20T04:10:26;9.55;;;5.90;;
22270;SDS011;11304;53.520;10.104;2022-08-20T04:12:53;7.20;;;6.07;;
22270;SDS011;11304;53.520;10.104;2022-08-20T04:15:19;8.30;;;6.22;;
22270;SDS011;11304;53.520;10.104;2022-08-20T04:17:47;8.77;;;7.03;;
22270;SDS011;11304;53.520;10.104;2022-08-20T04:20:18;8.98;;;6.57;;
22270;SDS011;11304;53.520;10.104;2022-08-20T04:22:46;12.63;;;8.68;;
22270;SDS011;11304;53.520;10.104;2022-08-20T04:25:12;14.07;;;9.93;;
22270;SDS011;11304;53.520;10.104;2022-08-20T04:27:39;19.10;;;12.20;;
22270;SDS011;11304;53.520;10.104;2022-08-20T04:30:06;18.42;;;14.60;;
22270;SDS011;11304;53.520;10.104;2022-08-20T04:32:33;24.50;;;15.68;;
22270;SDS011;11304;53.520;10.104;2022-08-20T04:35:01;18.80;;;14.25;;
22270;SDS011;11304;53.520;10.104;2022-08-20T04:37:27;21.23;;;16.08;;
22270;SDS011;11304;53.520;10.104;2022-08-20T04:39:54;19.30;;;15.50;;
22270;SDS011;11304;53.520;10.104;2022-08-20T04:42:39;23.27;;;16.90;;
22270;SDS011;11304;53.520;10.104;2022-08-20T04:45:05;19.10;;;15.32;;
22270;SDS011;11304;53.520;10.104;2022-08-20T04:47:33;23.98;;;17.67;;
22270;SDS011;11304;53.520;10.104;2022-08-20T04:49:59;24.52;;;17.70;;
22270;SDS011;11304;53.520;10.104;2022-08-20T04:52:26;20.23;;;15.70;;
22270;SDS011;11304;53.520;10.104;2022-08-20T04:54:52;18.55;;;15.68;;
22270;SDS011;11304;53.520;10.104;2022-08-20T04:57:21;20.35;;;16.33;;
22270;SDS011;11304;53.520;10.104;2022-08-20T04:59:48;23.33;;;16.83;;
22270;SDS011;11304;53.520;10.104;2022-08-20T05:02:14;17.00;;;14.43;;
22270;SDS011;11304;53.520;10.104;2022-08-20T05:04:42;23.95;;;19.05;;
22270;SDS011;11304;53.520;10.104;2022-08-20T05:07:09;23.83;;;17.40;;
22270;SDS011;11304;53.520;10.104;2022-08-20T05:09:37;27.35;;;19.17;;
22270;SDS011;11304;53.520;10.104;2022-08-20T05:12:03;22.48;;;17.42;;
22270;SDS011;11304;53.520;10.104;2022-08-20T05:14:29;24.17;;;17.73;;
22270;SDS011;11304;53.520;10.104;2022-08-20T05:16:56;23.05;;;17.45;;
22270;SDS011;11304;53.520;10.104;2022-08-20T05:19:22;23.88;;;17.52;;
22270;SDS011;11304;53.520;10.104;2022-08-20T05:21:48;21.40;;;16.35;;
22270;SDS011;11304;53.520;10.104;2022-08-20T05:24:17;22.50;;;16.77;;
22270;SDS011;11304;53.520;10.104;2022-08-20T05:26:45;20.87;;;17.37;;
22270;SDS011;11304;53.520;10.104;2022-08-20T05:29:11;17.77;;;15.15;;
22270;SDS011;11304;53.520;10.104;2022-08-20T05:31:37;25.08;;;17.17;;
22270;SDS011;11304;53.520;10.104;2022-08-20T05:34:04;21.95;;;16.30;;
22270;SDS011;11304;53.520;10.104;2022-08-20T05:36:33;25.95;;;16.45;;
22270;SDS011;11304;53.520;10.104;2022-08-20T05:38:59;20.85;;;16.85;;
22270;SDS011;11304;53.520;10.104;2022-08-20T05:41:26;17.42;;;13.90;;
22270;SDS011;11304;53.520;10.104;2022-08-20T05:43:58;16.92;;;14.45;;
22270;SDS011;11304;53.520;10.104;2022-08-20T05:46:28;18.50;;;14.40;;
22270;SDS011;11304;53.520;10.104;2022-08-20T05:48:55;16.65;;;14.85;;
22270;SDS011;11304;53.520;10.104;2022-08-20T05:51:21;15.88;;;13.30;;
22270;SDS011;11304;53.520;10.104;2022-08-20T05:53:47;17.67;;;12.85;;
22270;SDS011;11304;53.520;10.104;2022-08-20T05:56:13;18.50;;;14.10;;
22270;SDS011;11304;53.520;10.104;2022-08-20T05:58:39;18.17;;;14.88;;
22270;SDS011;11304;53.520;10.104;2022-08-20T06:01:05;15.63;;;13.45;;
22270;SDS011;11304;53.520;10.104;2022-08-20T06:03:32;23.05;;;14.45;;
22270;SDS011;11304;53.520;10.104;2022-08-20T06:06:16;18.75;;;14.73;;
22270;SDS011;11304;53.520;10.104;2022-08-20T06:08:43;17.25;;;12.73;;
22270;SDS011;11304;53.520;10.104;2022-08-20T06:11:09;14.00;;;11.68;;
22270;SDS011;11304;53.520;10.104;2022-08-20T06:13:35;16.58;;;14.23;;
22270;SDS011;11304;53.520;10.104;2022-08-20T06:16:01;17.27;;;15.07;;
22270;SDS011;11304;53.520;10.104;2022-08-20T06:18:27;16.33;;;13.60;;
22270;SDS011;11304;53.520;10.104;2022-08-20T06:20:53;14.43;;;13.02;;
22270;SDS011;11304;53.520;10.104;2022-08-20T06:23:19;18.55;;;13.32;;
22270;SDS011;11304;53.520;10.104;2022-08-20T06:25:47;15.20;;;12.05;;
22270;SDS011;11304;53.520;10.104;2022-08-20T06:28:14;15.25;;;13.63;;
22270;SDS011;11304;53.520;10.104;2022-08-20T06:30:41;18.17;;;13.55;;
22270;SDS011;11304;53.520;10.104;2022-08-20T06:33:07;14.43;;;12.02;;
22270;SDS011;11304;53.520;10.104;2022-08-20T06:35:33;14.75;;;12.90;;
22270;SDS011;11304;53.520;10.104;2022-08-20T06:38:02;18.35;;;13.10;;
22270;SDS011;11304;53.520;10.104;2022-08-20T06:40:30;17.17;;;13.60;;
22270;SDS011;11304;53.520;10.104;2022-08-20T06:42:58;16.27;;;11.43;;
22270;SDS011;11304;53.520;10.104;2022-08-20T06:45:25;15.90;;;12.00;;
22270;SDS011;11304;53.520;10.104;2022-08-20T06:47:53;16.53;;;10.83;;
22270;SDS011;11304;53.520;10.104;2022-08-20T06:50:21;14.57;;;13.02;;
22270;SDS011;11304;53.520;10.104;2022-08-20T06:52:48;16.38;;;12.88;;
22270;SDS011;11304;53.520;10.104;2022-08-20T06:55:14;13.07;;;11.80;;
22270;SDS011;11304;53.520;10.104;2022-08-20T06:57:41;15.45;;;11.65;;
22270;SDS011;11304;53.520;10.104;2022-08-20T07:00:09;17.73;;;13.10;;
22270;SDS011;11304;53.520;10.104;2022-08-20T07:02:36;13.43;;;12.13;;
22270;SDS011;11304;53.520;10.104;2022-08-20T07:05:02;15.50;;;12.18;;
22270;SDS011;11304;53.520;10.104;2022-08-20T07:07:29;15.00;;;12.82;;
22270;SDS011;11304;53.520;10.104;2022-08-20T07:10:14;16.95;;;13.15;;
22270;SDS011;11304;53.520;10.104;2022-08-20T07:12:41;15.70;;;12.00;;
22270;SDS011;11304;53.520;10.104;2022-08-20T07:15:08;13.25;;;11.30;;
22270;SDS011;11304;53.520;10.104;2022-08-20T07:17:35;15.63;;;11.88;;
22270;SDS011;11304;53.520;10.104;2022-08-20T07:20:03;15.25;;;11.52;;
22270;SDS011;11304;53.520;10.104;2022-08-20T07:24:59;12.00;;;9.82;;
22270;SDS011;11304;53.520;10.104;2022-08-20T07:27:26;13.30;;;10.15;;
22270;SDS011;11304;53.520;10.104;2022-08-20T07:29:52;11.85;;;9.05;;
22270;SDS011;11304;53.520;10.104;2022-08-20T07:32:37;12.38;;;9.40;;
22270;SDS011;11304;53.520;10.104;2022-08-20T07:35:04;11.88;;;8.30;;
22270;SDS011;11304;53.520;10.104;2022-08-20T07:37:31;11.88;;;8.45;;
22270;SDS011;11304;53.520;10.104;2022-08-20T07:40:01;9.60;;;7.03;;
22270;SDS011;11304;53.520;10.104;2022-08-20T07:42:28;8.98;;;7.93;;
22270;SDS011;11304;53.520;10.104;2022-08-20T07:44:55;9.88;;;6.70;;
22270;SDS011;11304;53.520;10.104;2022-08-20T07:47:21;7.32;;;5.13;;
22270;SDS011;11304;53.520;10.104;2022-08-20T07:49:48;12.27;;;5.68;;
22270;SDS011;11304;53.520;10.104;2022-08-20T07:52:14;9.02;;;4.88;;
22270;SDS011;11304;53.520;10.104;2022-08-20T07:54:40;7.25;;;4.45;;
22270;SDS011;11304;53.520;10.104;2022-08-20T07:57:07;6.30;;;3.92;;
22270;SDS011;11304;53.520;10.104;2022-08-20T07:59:35;6.78;;;3.72;;
22270;SDS011;11304;53.520;10.104;2022-08-20T08:02:03;11.02;;;4.07;;
22270;SDS011;11304;53.520;10.104;2022-08-20T08:04:29;8.55;;;3.70;;
22270;SDS011;11304;53.520;10.104;2022-08-20T08:06:55;8.48;;;3.80;;
22270;SDS011;11304;53.520;10.104;2022-08-20T08:09:24;5.43;;;3.28;;
22270;SDS011;11304;53.520;10.104;2022-08-20T08:11:51;8.95;;;3.50;;
22270;SDS011;11304;53.520;10.104;2022-08-20T08:14:22;12.52;;;2.75;;
22270;SDS011;11304;53.520;10.104;2022-08-20T08:16:54;7.18;;;3.10;;
22270;SDS011;11304;53.520;10.104;2022-08-20T08:19:21;4.53;;;2.85;;
22270;SDS011;11304;53.520;10.104;2022-08-20T08:21:49;8.82;;;2.80;;
22270;SDS011;11304;53.520;10.104;2022-08-20T08:24:15;7.85;;;2.95;;
22270;SDS011;11304;53.520;10.104;2022-08-20T08:26:44;5.55;;;2.70;;
22270;SDS011;11304;53.520;10.104;2022-08-20T08:29:14;7.40;;;2.53;;
22270;SDS011;11304;53.520;10.104;2022-08-20T08:31:41;6.90;;;2.83;;
22270;SDS011;11304;53.520;10.104;2022-08-20T08:34:07;4.18;;;2.60;;
22270;SDS011;11304;53.520;10.104;2022-08-20T08:36:33;5.10;;;2.33;;
22270;SDS011;11304;53.520;10.104;2022-08-20T08:38:59;6.97;;;2.60;;
22270;SDS011;11304;53.520;10.104;2022-08-20T08:41:44;5.07;;;2.40;;
22270;SDS011;11304;53.520;10.104;2022-08-20T08:44:31;8.32;;;2.38;;
22270;SDS011;11304;53.520;10.104;2022-08-20T08:47:00;5.50;;;2.38;;
22270;SDS011;11304;53.520;10.104;2022-08-20T08:49:30;5.43;;;2.30;;
22270;SDS011;11304;53.520;10.104;2022-08-20T08:54:32;8.85;;;3.28;;
22270;SDS011;11304;53.520;10.104;2022-08-20T08:56:59;8.80;;;2.83;;
22270;SDS011;11304;53.520;10.104;2022-08-20T08:59:26;6.53;;;2.67;;
22270;SDS011;11304;53.520;10.104;2022-08-20T09:01:54;5.63;;;2.65;;
22270;SDS011;11304;53.520;10.104;2022-08-20T09:04:21;8.80;;;3.15;;
22270;SDS011;11304;53.520;10.104;2022-08-20T09:06:48;12.82;;;3.00;;
22270;SDS011;11304;53.520;10.104;2022-08-20T09:09:36;9.43;;;3.28;;
22270;SDS011;11304;53.520;10.104;2022-08-20T09:12:07;5.43;;;2.58;;
22270;SDS011;11304;53.520;10.104;2022-08-20T09:14:33;4.57;;;1.90;;
22270;SDS011;11304;53.520;10.104;2022-08-20T09:17:00;6.18;;;2.10;;
22270;SDS011;11304;53.520;10.104;2022-08-20T09:19:26;5.72;;;1.92;;
22270;SDS011;11304;53.520;10.104;2022-08-20T09:21:52;8.55;;;2.10;;
22270;SDS011;11304;53.520;10.104;2022-08-20T09:24:18;4.88;;;2.10;;
22270;SDS011;11304;53.520;10.104;2022-08-20T09:26:44;6.20;;;1.83;;
22270;SDS011;11304;53.520;10.104;2022-08-20T09:29:10;5.03;;;1.98;;
22270;SDS011;11304;53.520;10.104;2022-08-20T09:31:37;8.23;;;2.25;;
22270;SDS011;11304;53.520;10.104;2022-08-20T09:34:03;8.25;;;2.00;;
22270;SDS011;11304;53.520;10.104;2022-08-20T09:36:29;4.55;;;1.80;;
22270;SDS011;11304;53.520;10.104;2022-08-20T09:38:55;5.47;;;1.92;;
22270;SDS011;11304;53.520;10.104;2022-08-20T09:41:22;5.13;;;1.75;;
22270;SDS011;11304;53.520;10.104;2022-08-20T09:43:48;5.68;;;2.33;;
22270;SDS011;11304;53.520;10.104;2022-08-20T09:46:14;6.82;;;1.90;;
22270;SDS011;11304;53.520;10.104;2022-08-20T09:48:40;6.53;;;2.38;;
22270;SDS011;11304;53.520;10.104;2022-08-20T09:51:06;6.68;;;2.42;;
22270;SDS011;11304;53.520;10.104;2022-08-20T09:53:32;8.88;;;2.38;;
22270;SDS011;11304;53.520;10.104;2022-08-20T09:55:59;8.73;;;2.30;;
22270;SDS011;11304;53.520;10.104;2022-08-20T10:00:51;8.68;;;2.28;;
22270;SDS011;11304;53.520;10.104;2022-08-20T10:03:18;7.97;;;2.08;;
22270;SDS011;11304;53.520;10.104;2022-08-20T10:05:44;6.78;;;2.20;;
22270;SDS011;11304;53.520;10.104;2022-08-20T10:08:10;6.45;;;1.80;;
22270;SDS011;11304;53.520;10.104;2022-08-20T10:10:36;7.80;;;2.40;;
22270;SDS011;11304;53.520;10.104;2022-08-20T10:13:03;10.55;;;2.47;;
22270;SDS011;11304;53.520;10.104;2022-08-20T10:15:29;6.82;;;2.30;;
22270;SDS011;11304;53.520;10.104;2022-08-20T10:17:55;7.45;;;2.22;;
22270;SDS011;11304;53.520;10.104;2022-08-20T10:20:22;9.70;;;2.30;;
22270;SDS011;11304;53.520;10.104;2022-08-20T10:22:48;8.77;;;2.40;;
22270;SDS011;11304;53.520;10.104;2022-08-20T10:25:14;12.85;;;2.33;;
22270;SDS011;11304;53.520;10.104;2022-08-20T10:27:41;8.25;;;2.70;;
22270;SDS011;11304;53.520;10.104;2022-08-20T10:30:08;7.53;;;2.42;;
22270;SDS011;11304;53.520;10.104;2022-08-20T10:32:34;7.53;;;2.05;;
22270;SDS011;11304;53.520;10.104;2022-08-20T10:35:01;15.30;;;2.78;;
22270;SDS011;11304;53.520;10.104;2022-08-20T10:37:27;9.77;;;2.58;;
22270;SDS011;11304;53.520;10.104;2022-08-20T10:39:54;7.22;;;2.15;;
22270;SDS011;11304;53.520;10.104;2022-08-20T10:42:21;9.70;;;2.42;;
22270;SDS011;11304;53.520;10.104;2022-08-20T10:44:47;9.05;;;2.45;;
22270;SDS011;11304;53.520;10.104;2022-08-20T10:49:45;9.10;;;2.80;;
22270;SDS011;11304;53.520;10.104;2022-08-20T10:52:11;9.60;;;2.30;;
22270;SDS011;11304;53.520;10.104;2022-08-20T10:54:38;12.43;;;2.22;;
22270;SDS011;11304;53.520;10.104;2022-08-20T10:57:06;15.98;;;3.13;;
22270;SDS011;11304;53.520;10.104;2022-08-20T10:59:36;9.60;;;2.60;;
22270;SDS011;11304;53.520;10.104;2022-08-20T11:02:02;8.50;;;2.05;;
22270;SDS011;11304;53.520;10.104;2022-08-20T11:04:28;8.95;;;2.72;;
22270;SDS011;11304;53.520;10.104;2022-08-20T11:06:55;9.43;;;2.65;;
22270;SDS011;11304;53.520;10.104;2022-08-20T11:09:21;9.55;;;2.75;;
22270;SDS011;11304;53.520;10.104;2022-08-20T11:11:47;10.65;;;2.70;;
22270;SDS011;11304;53.520;10.104;2022-08-20T11:14:13;6.65;;;2.40;;
22270;SDS011;11304;53.520;10.104;2022-08-20T11:16:39;11.43;;;2.35;;
22270;SDS011;11304;53.520;10.104;2022-08-20T11:19:05;8.55;;;2.58;;
22270;SDS011;11304;53.520;10.104;2022-08-20T11:21:31;7.05;;;2.17;;
22270;SDS011;11304;53.520;10.104;2022-08-20T11:23:57;9.90;;;2.30;;
22270;SDS011;11304;53.520;10.104;2022-08-20T11:26:24;7.88;;;2.25;;
22270;SDS011;11304;53.520;10.104;2022-08-20T11:28:50;10.68;;;2.40;;
22270;SDS011;11304;53.520;10.104;2022-08-20T11:31:16;7.70;;;2.40;;
22270;SDS011;11304;53.520;10.104;2022-08-20T11:33:42;10.32;;;2.50;;
22270;SDS011;11304;53.520;10.104;2022-08-20T11:36:08;10.43;;;2.33;;
22270;SDS011;11304;53.520;10.104;2022-08-20T11:38:34;10.05;;;2.20;;
22270;SDS011;11304;53.520;10.104;2022-08-20T11:41:00;6.30;;;2.13;;
22270;SDS011;11304;53.520;10.104;2022-08-20T11:43:27;11.13;;;2.15;;
22270;SDS011;11304;53.520;10.104;2022-08-20T11:45:53;5.57;;;2.20;;
22270;SDS011;11304;53.520;10.104;2022-08-20T11:48:20;8.02;;;2.15;;
22270;SDS011;11304;53.520;10.104;2022-08-20T11:50:47;7.55;;;2.10;;
22270;SDS011;11304;53.520;10.104;2022-08-20T11:53:13;10.15;;;2.22;;
22270;SDS011;11304;53.520;10.104;2022-08-20T11:55:39;8.60;;;2.38;;
22270;SDS011;11304;53.520;10.104;2022-08-20T11:58:05;9.18;;;2.25;;
22270;SDS011;11304;53.520;10.104;2022-08-20T12:00:32;12.05;;;2.60;;
22270;SDS011;11304;53.520;10.104;2022-08-20T12:02:58;8.65;;;2.40;;
22270;SDS011;11304;53.520;10.104;2022-08-20T12:05:24;10.23;;;2.50;;
22270;SDS011;11304;53.520;10.104;2022-08-20T12:07:51;7.68;;;2.00;;
22270;SDS011;11304;53.520;10.104;2022-08-20T12:10:17;9.75;;;2.13;;
22270;SDS011;11304;53.520;10.104;2022-08-20T12:12:43;8.30;;;2.08;;
22270;SDS011;11304;53.520;10.104;2022-08-20T12:15:10;7.50;;;2.10;;
22270;SDS011;11304;53.520;10.104;2022-08-20T12:17:36;7.85;;;2.10;;
22270;SDS011;11304;53.520;10.104;2022-08-20T12:20:05;14.57;;;2.55;;
22270;SDS011;11304;53.520;10.104;2022-08-20T12:22:32;9.75;;;2.30;;
22270;SDS011;11304;53.520;10.104;2022-08-20T12:24:58;10.07;;;2.22;;
22270;SDS011;11304;53.520;10.104;2022-08-20T12:27:29;10.02;;;2.22;;
22270;SDS011;11304;53.520;10.104;2022-08-20T12:29:56;10.80;;;1.90;;
22270;SDS011;11304;53.520;10.104;2022-08-20T12:32:23;8.35;;;2.60;;
22270;SDS011;11304;53.520;10.104;2022-08-20T12:34:49;10.30;;;2.40;;
22270;SDS011;11304;53.520;10.104;2022-08-20T12:37:17;7.63;;;1.80;;
22270;SDS011;11304;53.520;10.104;2022-08-20T12:39:45;7.97;;;1.70;;
22270;SDS011;11304;53.520;10.104;2022-08-20T12:42:11;6.80;;;1.43;;
22270;SDS011;11304;53.520;10.104;2022-08-20T12:44:38;7.22;;;2.00;;
22270;SDS011;11304;53.520;10.104;2022-08-20T12:47:12;5.20;;;1.75;;
22270;SDS011;11304;53.520;10.104;2022-08-20T12:49:39;6.30;;;1.63;;
22270;SDS011;11304;53.520;10.104;2022-08-20T12:52:06;7.35;;;1.92;;
22270;SDS011;11304;53.520;10.104;2022-08-20T12:54:32;8.05;;;2.20;;
22270;SDS011;11304;53.520;10.104;2022-08-20T12:56:58;6.22;;;1.70;;
22270;SDS011;11304;53.520;10.104;2022-08-20T12:59:25;9.57;;;1.83;;
22270;SDS011;11304;53.520;10.104;2022-08-20T13:01:51;7.38;;;2.08;;
22270;SDS011;11304;53.520;10.104;2022-08-20T13:04:17;8.05;;;1.80;;
22270;SDS011;11304;53.520;10.104;2022-08-20T13:11:36;7.40;;;1.42;;
22270;SDS011;11304;53.520;10.104;2022-08-20T13:14:02;7.03;;;1.80;;
22270;SDS011;11304;53.520;10.104;2022-08-20T13:18:54;5.78;;;1.40;;
22270;SDS011;11304;53.520;10.104;2022-08-20T13:21:20;10.85;;;1.77;;
22270;SDS011;11304;53.520;10.104;2022-08-20T13:23:46;6.75;;;1.52;;
22270;SDS011;11304;53.520;10.104;2022-08-20T13:26:12;8.55;;;1.80;;
22270;SDS011;11304;53.520;10.104;2022-08-20T13:28:38;5.60;;;1.27;;
22270;SDS011;11304;53.520;10.104;2022-08-20T13:31:05;7.32;;;1.52;;
22270;SDS011;11304;53.520;10.104;2022-08-20T13:33:31;8.27;;;1.77;;
22270;SDS011;11304;53.520;10.104;2022-08-20T13:35:57;7.15;;;1.83;;
22270;SDS011;11304;53.520;10.104;2022-08-20T13:38:23;7.32;;;1.63;;
22270;SDS011;11304;53.520;10.104;2022-08-20T13:40:49;4.55;;;1.25;;
22270;SDS011;11304;53.520;10.104;2022-08-20T13:43:15;8.30;;;1.73;;
22270;SDS011;11304;53.520;10.104;2022-08-20T13:45:41;6.93;;;1.50;;
22270;SDS011;11304;53.520;10.104;2022-08-20T13:48:07;7.93;;;1.67;;
22270;SDS011;11304;53.520;10.104;2022-08-20T13:50:34;6.68;;;1.40;;
22270;SDS011;11304;53.520;10.104;2022-08-20T13:53:00;6.18;;;1.83;;
22270;SDS011;11304;53.520;10.104;2022-08-20T13:55:27;5.57;;;1.40;;
22270;SDS011;11304;53.520;10.104;2022-08-20T13:57:54;10.63;;;1.65;;
22270;SDS011;11304;53.520;10.104;2022-08-20T14:00:25;9.80;;;1.80;;
22270;SDS011;11304;53.520;10.104;2022-08-20T14:02:52;6.43;;;1.80;;
22270;SDS011;11304;53.520;10.104;2022-08-20T14:05:18;9.60;;;1.50;;
22270;SDS011;11304;53.520;10.104;2022-08-20T14:07:44;11.23;;;1.70;;
22270;SDS011;11304;53.520;10.104;2022-08-20T14:10:12;7.47;;;1.30;;
22270;SDS011;11304;53.520;10.104;2022-08-20T14:12:39;6.05;;;2.03;;
22270;SDS011;11304;53.520;10.104;2022-08-20T14:15:05;4.13;;;1.20;;
22270;SDS011;11304;53.520;10.104;2022-08-20T14:17:37;6.22;;;1.70;;
22270;SDS011;11304;53.520;10.104;2022-08-20T14:20:08;8.30;;;1.60;;
22270;SDS011;11304;53.520;10.104;2022-08-20T14:22:34;6.28;;;1.60;;
22270;SDS011;11304;53.520;10.104;2022-08-20T14:25:00;5.95;;;1.58;;
22270;SDS011;11304;53.520;10.104;2022-08-20T14:27:28;5.70;;;1.48;;
22270;SDS011;11304;53.520;10.104;2022-08-20T14:29:54;6.28;;;1.50;;
22270;SDS011;11304;53.520;10.104;2022-08-20T14:32:21;8.25;;;1.60;;
22270;SDS011;11304;53.520;10.104;2022-08-20T14:34:47;8.93;;;1.70;;
22270;SDS011;11304;53.520;10.104;2022-08-20T14:37:20;8.13;;;1.55;;
22270;SDS011;11304;53.520;10.104;2022-08-20T14:39:48;6.97;;;1.52;;
22270;SDS011;11304;53.520;10.104;2022-08-20T14:42:14;7.78;;;1.50;;
22270;SDS011;11304;53.520;10.104;2022-08-20T14:44:41;9.20;;;1.73;;
22270;SDS011;11304;53.520;10.104;2022-08-20T14:47:11;6.57;;;1.60;;
22270;SDS011;11304;53.520;10.104;2022-08-20T14:49:38;8.95;;;1.42;;
22270;SDS011;11304;53.520;10.104;2022-08-20T14:52:04;8.60;;;1.60;;
22270;SDS011;11304;53.520;10.104;2022-08-20T14:54:30;6.80;;;1.60;;